createdAt,value
2019-03-03T00:01:33.885Z,36.40
2019-03-03T00:04:04.546Z,27.47
2019-03-03T00:06:34.722Z,35.97
2019-03-03T00:09:08.268Z,30.90
2019-03-03T00:11:39.441Z,28.23
2019-03-03T00:14:12.306Z,30.90
2019-03-03T00:16:42.939Z,30.13
2019-03-03T00:19:16.169Z,28.57
2019-03-03T00:21:49.342Z,37.70
2019-03-03T00:24:18.727Z,27.50
2019-03-03T00:26:52.203Z,27.80
2019-03-03T00:29:22.961Z,26.07
2019-03-03T00:31:54.482Z,27.73
2019-03-03T00:34:27.964Z,31.70
2019-03-03T00:38:01.614Z,24.13
2019-03-03T00:40:52.336Z,25.80
2019-03-03T00:43:29.750Z,29.70
2019-03-03T00:46:08.313Z,28.83
2019-03-03T00:48:50.445Z,30.17
2019-03-03T00:51:25.987Z,24.13
2019-03-03T00:56:03.960Z,29.60
2019-03-03T00:58:43.854Z,27.23
2019-03-03T01:01:25.350Z,29.87
2019-03-03T01:04:05.091Z,27.40
2019-03-03T01:07:41.972Z,21.53
2019-03-03T01:10:15.572Z,26.03
2019-03-03T01:12:59.802Z,23.97
2019-03-03T01:15:34.735Z,20.77
2019-03-03T01:18:09.999Z,22.00
2019-03-03T01:20:47.592Z,30.50
2019-03-03T01:24:25.676Z,25.23
2019-03-03T01:26:57.690Z,27.47
2019-03-03T01:29:28.946Z,29.63
2019-03-03T01:31:59.085Z,20.17
2019-03-03T01:34:32.140Z,23.13
2019-03-03T01:37:02.778Z,15.97
2019-03-03T01:39:35.032Z,28.50
2019-03-03T01:42:06.539Z,25.73
2019-03-03T01:44:36.843Z,28.17
2019-03-03T01:47:07.540Z,27.00
2019-03-03T01:49:41.792Z,22.23
2019-03-03T01:52:18.095Z,28.63
2019-03-03T01:54:49.511Z,37.50
2019-03-03T01:57:23.776Z,29.23
2019-03-03T01:59:55.671Z,30.73
2019-03-03T02:02:27.892Z,29.17
2019-03-03T02:05:00.912Z,32.00
2019-03-03T02:07:33.040Z,31.87
2019-03-03T02:10:02.469Z,22.17
2019-03-03T02:12:37.044Z,28.77
2019-03-03T02:15:08.373Z,26.63
2019-03-03T02:17:39.459Z,28.43
2019-03-03T02:20:10.596Z,27.70
2019-03-03T02:22:42.157Z,34.57
2019-03-03T02:25:13.711Z,41.77
2019-03-03T02:27:44.805Z,30.23
2019-03-03T02:30:20.335Z,34.17
2019-03-03T02:32:55.427Z,34.90
2019-03-03T02:35:30.409Z,32.43
2019-03-03T02:38:02.630Z,36.87
2019-03-03T02:40:31.854Z,34.47
2019-03-03T02:43:03.292Z,25.63
2019-03-03T02:45:37.649Z,22.80
2019-03-03T02:48:08.954Z,33.70
2019-03-03T02:50:38.227Z,22.00
2019-03-03T02:53:08.479Z,28.23
2019-03-03T02:55:38.565Z,21.03
2019-03-03T02:58:13.209Z,24.20
2019-03-03T03:00:46.806Z,23.87
2019-03-03T03:03:18.205Z,21.37
2019-03-03T03:06:00.598Z,35.20
2019-03-03T03:11:24.451Z,28.00
2019-03-03T03:14:16.052Z,21.00
2019-03-03T03:16:52.136Z,26.07
2019-03-03T03:19:27.436Z,28.37
2019-03-03T03:24:46.642Z,21.43
2019-03-03T03:27:29.433Z,25.63
2019-03-03T03:30:06.735Z,23.67
2019-03-03T03:32:43.804Z,28.77
2019-03-03T03:35:48.370Z,27.13
2019-03-03T03:41:08.332Z,30.87
2019-03-03T03:44:48.593Z,24.23
2019-03-03T03:47:27.510Z,34.63
2019-03-03T03:50:04.053Z,35.90
2019-03-03T03:52:38.197Z,49.30
2019-03-03T03:55:14.664Z,41.63
2019-03-03T03:57:51.859Z,31.60
2019-03-03T04:00:36.468Z,44.43
2019-03-03T04:05:17.540Z,40.43
2019-03-03T04:08:06.684Z,47.07
2019-03-03T04:10:49.949Z,24.07
2019-03-03T04:13:27.067Z,31.97
2019-03-03T04:16:09.629Z,18.80
2019-03-03T04:19:16.326Z,19.73
2019-03-03T04:21:53.478Z,18.47
2019-03-03T04:25:49.273Z,23.33
2019-03-03T04:28:29.898Z,23.67
2019-03-03T04:31:25.905Z,19.37
2019-03-03T04:34:01.236Z,19.23
2019-03-03T04:36:39.714Z,20.67
2019-03-03T04:39:16.342Z,24.67
2019-03-03T04:43:55.272Z,23.03
2019-03-03T04:46:37.326Z,15.67
2019-03-03T04:49:12.463Z,18.27
2019-03-03T04:51:59.500Z,19.00
2019-03-03T04:54:41.614Z,20.10
2019-03-03T04:57:23.746Z,18.50
2019-03-03T05:00:02.923Z,18.80
2019-03-03T05:02:39.455Z,24.23
2019-03-03T05:05:29.890Z,17.80
2019-03-03T05:08:15.868Z,13.97
2019-03-03T05:10:52.179Z,17.53
2019-03-03T05:13:29.951Z,15.47
2019-03-03T05:16:08.549Z,19.43
2019-03-03T05:19:14.968Z,13.87
2019-03-03T05:21:44.423Z,11.70
2019-03-03T05:24:14.241Z,17.87
2019-03-03T05:26:47.588Z,13.57
2019-03-03T05:29:21.980Z,13.20
2019-03-03T05:31:55.586Z,9.63
2019-03-03T05:34:26.013Z,11.33
2019-03-03T05:36:57.979Z,12.73
2019-03-03T05:39:32.525Z,14.57
2019-03-03T05:42:04.840Z,10.23
2019-03-03T05:44:38.297Z,12.50
2019-03-03T05:47:10.016Z,14.40
2019-03-03T05:49:41.200Z,15.60
2019-03-03T05:52:13.959Z,7.47
2019-03-03T05:54:45.240Z,8.90
2019-03-03T05:57:19.654Z,11.43
2019-03-03T05:59:51.444Z,12.70
2019-03-03T06:02:23.528Z,12.23
2019-03-03T06:04:54.600Z,7.77
2019-03-03T06:07:24.796Z,11.30
2019-03-03T06:09:54.988Z,7.40
2019-03-03T06:12:26.219Z,8.77
2019-03-03T06:14:55.492Z,8.60
2019-03-03T06:17:26.398Z,7.30
2019-03-03T06:19:59.151Z,7.20
2019-03-03T06:22:30.554Z,3.93
2019-03-03T06:25:01.460Z,7.53
2019-03-03T06:27:33.819Z,4.73
2019-03-03T06:30:07.227Z,8.57
2019-03-03T06:32:42.194Z,4.97
2019-03-03T06:35:14.162Z,6.63
2019-03-03T06:37:48.561Z,5.57
2019-03-03T06:40:20.765Z,4.97
2019-03-03T06:42:53.078Z,12.90
2019-03-03T06:45:27.478Z,4.67
2019-03-03T06:47:58.590Z,8.07
2019-03-03T06:50:28.769Z,3.83
2019-03-03T06:53:06.501Z,7.10
2019-03-03T06:55:42.525Z,5.13
2019-03-03T06:58:16.526Z,2.90
2019-03-03T07:00:50.813Z,4.57
2019-03-03T07:03:23.577Z,3.67
2019-03-03T07:05:53.089Z,4.90
2019-03-03T07:08:24.771Z,3.17
2019-03-03T07:10:56.560Z,4.30
2019-03-03T07:13:26.780Z,5.63
2019-03-03T07:15:57.282Z,2.73
2019-03-03T07:18:27.631Z,7.13
2019-03-03T07:23:39.194Z,4.93
2019-03-03T07:26:08.599Z,3.67
2019-03-03T07:28:38.676Z,3.87
2019-03-03T07:31:16.748Z,4.63
2019-03-03T07:33:52.864Z,2.53
2019-03-03T07:36:31.462Z,9.13
2019-03-03T07:39:00.885Z,20.80
2019-03-03T07:41:35.767Z,19.90
2019-03-03T07:44:08.122Z,10.10
2019-03-03T07:46:45.555Z,11.90
2019-03-03T07:49:21.328Z,18.10
2019-03-03T07:51:51.340Z,16.83
2019-03-03T07:54:27.564Z,18.63
2019-03-03T07:56:59.614Z,22.33
2019-03-03T07:59:29.236Z,14.87
2019-03-03T08:02:00.658Z,17.43
2019-03-03T08:04:37.096Z,25.27
2019-03-03T08:07:08.870Z,29.30
2019-03-03T08:09:38.934Z,31.87
2019-03-03T08:12:10.885Z,45.70
2019-03-03T08:14:51.121Z,37.70
2019-03-03T08:17:29.765Z,30.13
2019-03-03T08:20:06.445Z,40.60
2019-03-03T08:22:43.118Z,46.10
2019-03-03T08:25:23.162Z,47.77
2019-03-03T08:27:55.000Z,40.43
2019-03-03T08:30:28.060Z,44.63
2019-03-03T08:33:01.136Z,37.60
2019-03-03T08:35:36.596Z,50.10
2019-03-03T08:38:07.007Z,36.87
2019-03-03T08:40:36.905Z,34.53
2019-03-03T08:43:10.690Z,40.23
2019-03-03T08:47:02.897Z,44.90
2019-03-03T08:49:42.499Z,44.03
2019-03-03T08:52:25.926Z,42.33
2019-03-03T08:56:09.173Z,41.77
2019-03-03T08:59:46.188Z,53.33
2019-03-03T09:02:22.367Z,46.83
2019-03-03T09:05:01.292Z,51.17
2019-03-03T09:08:07.503Z,50.10
2019-03-03T09:12:55.762Z,33.23
2019-03-03T09:19:51.143Z,42.97
2019-03-03T09:22:26.724Z,53.40
2019-03-03T09:25:03.692Z,48.33
2019-03-03T09:27:42.757Z,44.27
2019-03-03T09:30:27.145Z,44.53
2019-03-03T09:35:07.591Z,44.20
2019-03-03T09:37:42.606Z,43.33
2019-03-03T09:40:20.320Z,34.67
2019-03-03T09:43:02.651Z,36.90
2019-03-03T09:46:11.363Z,35.57
2019-03-03T09:48:51.843Z,32.17
2019-03-03T09:52:26.765Z,27.97
2019-03-03T09:55:13.799Z,25.17
2019-03-03T09:58:24.247Z,18.40
2019-03-03T10:01:04.345Z,18.93
2019-03-03T10:03:47.405Z,24.93
2019-03-03T10:06:42.685Z,18.97
2019-03-03T10:10:18.897Z,19.77
2019-03-03T10:12:55.489Z,19.07
2019-03-03T10:15:30.603Z,10.57
2019-03-03T10:18:38.500Z,17.67
2019-03-03T10:21:18.589Z,17.03
2019-03-03T10:23:53.197Z,15.93
2019-03-03T10:28:33.393Z,14.97
2019-03-03T10:31:09.796Z,17.57
2019-03-03T10:33:48.870Z,12.23
2019-03-03T10:36:26.103Z,14.17
2019-03-03T10:39:08.151Z,13.67
2019-03-03T10:41:44.162Z,17.50
2019-03-03T10:44:22.929Z,11.70
2019-03-03T10:47:59.824Z,11.20
2019-03-03T10:51:07.104Z,12.20
2019-03-03T10:53:48.222Z,17.77
2019-03-03T10:56:44.305Z,13.40
2019-03-03T10:59:26.263Z,16.70
2019-03-03T11:03:08.737Z,16.70
2019-03-03T11:05:44.092Z,13.70
2019-03-03T11:09:24.422Z,13.43
2019-03-03T11:11:58.912Z,19.07
2019-03-03T11:16:39.389Z,14.97
2019-03-03T11:19:15.074Z,18.67
2019-03-03T11:21:50.457Z,21.93
2019-03-03T11:24:29.052Z,19.73
2019-03-03T11:27:05.063Z,28.67
2019-03-03T11:29:52.743Z,25.50
2019-03-03T11:32:36.545Z,20.73
2019-03-03T11:37:58.149Z,19.90
2019-03-03T11:40:35.463Z,22.77
2019-03-03T11:43:13.904Z,22.70
2019-03-03T11:45:49.026Z,20.80
2019-03-03T11:48:24.679Z,20.73
2019-03-03T11:51:06.967Z,25.10
2019-03-03T11:54:00.249Z,23.07
2019-03-03T11:56:35.892Z,29.53
2019-03-03T12:03:29.695Z,31.43
2019-03-03T12:06:25.202Z,23.03
2019-03-03T12:09:20.483Z,29.43
2019-03-03T12:11:57.478Z,23.53
2019-03-03T12:14:40.970Z,17.77
2019-03-03T12:17:17.718Z,20.70
2019-03-03T12:19:52.447Z,22.63
2019-03-03T12:22:28.802Z,14.20
2019-03-03T12:25:07.412Z,14.20
2019-03-03T12:27:54.398Z,19.60
2019-03-03T12:30:36.365Z,16.77
2019-03-03T12:33:17.641Z,12.60
2019-03-03T12:35:52.539Z,14.37
2019-03-03T12:38:33.053Z,11.63
2019-03-03T12:41:24.694Z,14.70
2019-03-03T12:44:06.212Z,15.17
2019-03-03T12:46:41.929Z,9.20
2019-03-03T12:49:25.411Z,18.07
2019-03-03T12:52:05.267Z,12.37
2019-03-03T12:54:44.653Z,9.37
2019-03-03T12:57:26.231Z,5.60
2019-03-03T13:00:06.230Z,6.93
2019-03-03T13:04:45.859Z,10.07
2019-03-03T13:08:22.219Z,4.87
2019-03-03T13:11:57.421Z,7.60
2019-03-03T13:17:25.509Z,5.03
2019-03-03T13:22:10.414Z,4.37
2019-03-03T13:29:33.363Z,1.53
2019-03-03T13:33:09.392Z,2.53
2019-03-03T13:36:00.409Z,3.37
2019-03-03T13:38:41.979Z,3.50
2019-03-03T13:42:27.869Z,3.90
2019-03-03T13:45:06.185Z,2.30
2019-03-03T13:47:39.838Z,2.67
2019-03-03T13:50:13.386Z,2.00
2019-03-03T13:52:47.390Z,2.37
2019-03-03T13:55:18.055Z,3.33
2019-03-03T13:57:55.840Z,1.40
2019-03-03T14:03:02.305Z,7.80
2019-03-03T14:05:33.028Z,10.27
2019-03-03T14:08:04.190Z,7.87
2019-03-03T14:10:38.624Z,9.33
2019-03-03T14:13:08.808Z,8.50
2019-03-03T14:15:38.513Z,13.60
2019-03-03T14:18:14.625Z,11.70
2019-03-03T14:20:44.695Z,11.57
2019-03-03T14:23:15.263Z,11.53
2019-03-03T14:25:51.910Z,18.93
2019-03-03T14:28:21.591Z,16.50
2019-03-03T14:30:54.140Z,14.77
2019-03-03T14:33:28.053Z,20.17
2019-03-03T14:35:58.685Z,19.10
2019-03-03T14:38:31.455Z,21.63
2019-03-03T14:41:02.936Z,14.10
2019-03-03T14:43:33.752Z,26.10
2019-03-03T14:46:11.933Z,27.00
2019-03-03T14:48:43.972Z,36.17
2019-03-03T14:51:20.273Z,25.80
2019-03-03T14:53:50.805Z,33.90
2019-03-03T14:56:21.293Z,39.20
2019-03-03T14:58:53.156Z,31.70
2019-03-03T15:01:22.439Z,42.17
2019-03-03T15:03:54.273Z,34.37
2019-03-03T15:06:24.671Z,46.40
2019-03-03T15:09:05.083Z,40.47
2019-03-03T15:11:43.431Z,45.30
2019-03-03T15:14:14.334Z,43.03
2019-03-03T15:16:44.736Z,31.83
2019-03-03T15:19:14.718Z,27.20
2019-03-03T15:21:44.603Z,35.47
2019-03-03T15:24:15.013Z,40.30
2019-03-03T15:26:54.305Z,36.43
2019-03-03T15:29:25.633Z,44.10
2019-03-03T15:31:56.257Z,30.40
2019-03-03T15:34:25.368Z,41.00
2019-03-03T15:36:55.947Z,30.93
2019-03-03T15:39:25.387Z,26.03
2019-03-03T15:41:57.922Z,29.80
2019-03-03T15:44:33.309Z,30.00
2019-03-03T15:47:06.581Z,39.80
2019-03-03T15:49:37.295Z,39.23
2019-03-03T15:52:12.689Z,31.10
2019-03-03T15:54:44.534Z,23.77
2019-03-03T15:57:19.165Z,24.47
2019-03-03T15:59:55.732Z,25.27
2019-03-03T16:02:26.664Z,23.67
2019-03-03T16:05:00.575Z,18.63
2019-03-03T16:07:35.989Z,21.70
2019-03-03T16:10:06.359Z,24.07
2019-03-03T16:12:38.974Z,25.10
2019-03-03T16:15:11.497Z,23.93
2019-03-03T16:17:42.877Z,17.63
2019-03-03T16:20:19.105Z,18.50
2019-03-03T16:22:53.072Z,24.23
2019-03-03T16:25:25.268Z,21.10
2019-03-03T16:28:00.562Z,20.57
2019-03-03T16:30:34.381Z,25.90
2019-03-03T16:33:07.280Z,23.70
2019-03-03T16:35:45.119Z,21.57
2019-03-03T16:38:16.997Z,27.90
2019-03-03T16:40:47.277Z,36.13
2019-03-03T16:43:17.472Z,26.43
2019-03-03T16:45:50.963Z,14.47
2019-03-03T16:48:21.129Z,20.53
2019-03-03T16:50:55.295Z,18.90
2019-03-03T16:53:25.669Z,15.93
2019-03-03T16:56:00.827Z,24.90
2019-03-03T16:58:33.754Z,17.90
2019-03-03T17:01:02.923Z,22.70
2019-03-03T17:03:32.980Z,17.27
2019-03-03T17:06:06.368Z,23.10
2019-03-03T17:11:24.455Z,24.17
2019-03-03T17:13:56.086Z,19.27
2019-03-03T17:16:28.319Z,24.07
2019-03-03T17:19:00.616Z,20.77
2019-03-03T17:21:31.332Z,16.60
2019-03-03T17:24:05.671Z,21.30
2019-03-03T17:29:14.111Z,15.43
2019-03-03T17:31:45.355Z,14.60
2019-03-03T17:34:15.939Z,24.97
2019-03-03T17:36:46.981Z,17.50
2019-03-03T17:39:17.665Z,25.53
2019-03-03T17:41:46.684Z,29.50
2019-03-03T17:44:21.787Z,22.97
2019-03-03T17:46:55.941Z,27.07
2019-03-03T17:49:31.262Z,16.00
2019-03-03T17:52:01.789Z,19.07
2019-03-03T17:54:34.355Z,18.20
2019-03-03T17:57:08.126Z,18.07
2019-03-03T17:59:44.211Z,20.93
2019-03-03T18:02:16.838Z,12.17
2019-03-03T18:04:49.891Z,20.07
2019-03-03T18:07:19.979Z,13.83
2019-03-03T18:09:50.507Z,19.00
2019-03-03T18:12:20.030Z,20.47
2019-03-03T18:14:56.351Z,16.80
2019-03-03T18:17:26.224Z,15.43
2019-03-03T18:19:58.237Z,14.30
2019-03-03T18:22:30.269Z,16.47
2019-03-03T18:25:02.811Z,20.17
2019-03-03T18:27:36.131Z,21.97
2019-03-03T18:30:10.046Z,20.17
2019-03-03T18:32:49.154Z,25.37
2019-03-03T18:35:20.102Z,14.07
2019-03-03T18:37:52.513Z,17.63
2019-03-03T18:40:28.383Z,15.60
2019-03-03T18:43:08.451Z,21.80
2019-03-03T18:45:45.293Z,11.70
2019-03-03T18:48:18.593Z,22.43
2019-03-03T18:50:53.618Z,22.20
2019-03-03T18:53:25.875Z,18.10
2019-03-03T18:55:55.408Z,12.90
2019-03-03T18:58:26.197Z,20.43
2019-03-03T19:01:01.527Z,13.77
2019-03-03T19:03:31.297Z,19.13
2019-03-03T19:06:06.453Z,21.20
2019-03-03T19:11:18.968Z,26.33
2019-03-03T19:13:54.633Z,20.33
2019-03-03T19:16:32.763Z,18.07
2019-03-03T19:19:03.517Z,17.50
2019-03-03T19:21:34.029Z,20.63
2019-03-03T19:24:07.786Z,17.23
2019-03-03T19:26:39.894Z,12.07
2019-03-03T19:29:16.020Z,21.57
2019-03-03T19:31:52.202Z,19.03
2019-03-03T19:34:29.418Z,31.27
2019-03-03T19:36:59.745Z,15.53
2019-03-03T19:39:37.222Z,16.73
2019-03-03T19:42:11.273Z,24.30
2019-03-03T19:44:47.039Z,27.47
2019-03-03T19:47:17.737Z,14.60
2019-03-03T19:49:47.926Z,23.87
2019-03-03T19:52:24.427Z,21.03
2019-03-03T19:55:02.485Z,16.10
2019-03-03T19:57:34.731Z,19.73
2019-03-03T20:00:05.415Z,14.30
2019-03-03T20:02:41.266Z,16.50
2019-03-03T20:05:13.797Z,14.83
2019-03-03T20:07:48.079Z,16.33
2019-03-03T20:10:26.305Z,21.20
2019-03-03T20:13:03.238Z,12.53
2019-03-03T20:15:37.158Z,15.33
2019-03-03T20:18:10.578Z,12.67
2019-03-03T20:20:44.658Z,10.20
2019-03-03T20:23:16.902Z,16.67
2019-03-03T20:28:26.642Z,18.57
2019-03-03T20:30:59.675Z,16.27
2019-03-03T20:33:32.665Z,12.53
2019-03-03T20:36:06.017Z,17.10
2019-03-03T20:38:39.570Z,13.70
2019-03-03T20:41:14.652Z,10.70
2019-03-03T20:43:48.178Z,15.63
2019-03-03T20:46:30.111Z,12.97
2019-03-03T20:49:07.027Z,12.37
2019-03-03T20:51:40.816Z,11.77
2019-03-03T20:54:18.594Z,19.00
2019-03-03T20:56:48.827Z,12.27
2019-03-03T20:59:24.294Z,9.10
2019-03-03T21:01:57.245Z,8.70
2019-03-03T21:04:28.759Z,10.87
2019-03-03T21:07:06.417Z,8.97
2019-03-03T21:09:39.109Z,7.40
2019-03-03T21:12:09.552Z,16.33
2019-03-03T21:14:40.387Z,7.43
2019-03-03T21:17:13.233Z,11.07
2019-03-03T21:19:45.581Z,15.40
2019-03-03T21:22:18.787Z,5.00
2019-03-03T21:24:51.078Z,6.90
2019-03-03T21:27:22.781Z,9.23
2019-03-03T21:29:53.501Z,15.30
2019-03-03T21:32:24.034Z,7.70
2019-03-03T21:34:56.432Z,10.10
2019-03-03T21:37:29.518Z,4.93
2019-03-03T21:40:00.794Z,7.57
2019-03-03T21:42:36.459Z,4.70
2019-03-03T21:45:09.941Z,2.57
2019-03-03T21:47:49.009Z,2.43
2019-03-03T21:50:24.043Z,4.10
2019-03-03T21:53:01.496Z,2.50
2019-03-03T21:55:31.794Z,3.13
2019-03-03T21:58:02.285Z,3.97
2019-03-03T22:00:39.370Z,5.27
2019-03-03T22:03:12.567Z,2.30
2019-03-03T22:05:44.139Z,3.40
2019-03-03T22:08:24.672Z,4.00
2019-03-03T22:10:59.145Z,3.17
2019-03-03T22:13:30.576Z,5.47
2019-03-03T22:16:01.805Z,7.00
2019-03-03T22:18:32.922Z,7.47
2019-03-03T22:21:03.874Z,5.83
2019-03-03T22:23:34.420Z,5.00
2019-03-03T22:26:09.897Z,5.83
2019-03-03T22:28:39.590Z,5.87
2019-03-03T22:31:09.625Z,4.70
2019-03-03T22:33:42.599Z,5.40
2019-03-03T22:36:13.316Z,4.63
2019-03-03T22:38:47.444Z,4.80
2019-03-03T22:44:39.121Z,7.03
2019-03-03T22:47:13.303Z,3.47
2019-03-03T22:49:53.975Z,6.13
2019-03-03T22:52:30.096Z,8.80
2019-03-03T22:55:00.917Z,2.47
2019-03-03T22:57:37.730Z,8.10
2019-03-03T23:00:18.418Z,3.30
2019-03-03T23:02:50.037Z,4.43
2019-03-03T23:05:30.247Z,3.63
2019-03-03T23:08:11.549Z,3.50
2019-03-03T23:10:52.009Z,4.37
2019-03-03T23:13:35.033Z,3.80
2019-03-03T23:16:20.550Z,4.63
2019-03-03T23:19:20.982Z,2.93
2019-03-03T23:24:04.670Z,3.63
2019-03-03T23:26:35.947Z,3.13
2019-03-03T23:29:12.207Z,3.20
2019-03-03T23:31:49.189Z,4.43
2019-03-03T23:34:22.577Z,1.70
2019-03-03T23:36:53.144Z,1.90
2019-03-03T23:39:25.314Z,3.30
2019-03-03T23:41:58.811Z,6.07
2019-03-03T23:44:31.098Z,4.03
2019-03-03T23:47:02.173Z,5.53
2019-03-03T23:49:32.955Z,9.73
2019-03-03T23:52:05.047Z,5.80
2019-03-03T23:54:39.968Z,3.40
2019-03-03T23:57:09.188Z,5.67
2019-03-03T23:59:40.974Z,7.80
